Trumbull, Nebraska
Current Conditions -  °F | °C
As of 2:53 AM on Friday 21 Nov 2014 (Local Time) from KHSI Reporting Station
Clear Clear  
Wind Chill:   Ceiling: Unl
Heat Index: 20°   Visibility: 10mi
Dew Point: 16°   Wind: 9mph
Humidity: 85%   Direction: 160°SSE
Pressure: 30.13"   Gusts: NA
Location:  40.68°N, 98.27°W
Report Text: KHSI 210853Z AUTO 16008KT 10SM CLR M07/M09 A3013 RMK AO2 SLP224 T10671089 58007
Loading
Personal Weather Stations






























Interactive Weather Map New forecast layout! Learn more

10-Day Weather Forecast

Advertisements
Track Severe Weather on mobile